This is the latest recevied weather packets stored in our database for station/object EA1DB-1. If no packets are shown the sender has not sent any weather packets the latest 10 day(s).
| Time | Temp. | Humidity | Pressure | Rain* | Wind** | Luminosity | Snow |
|---|---|---|---|---|---|---|---|
| 1777982773 | 16.11° C | 64% | 1012.5 hPa | 0 mm | - | - | - |
| 1777981593 | 15.56° C | 67% | 1012.7 hPa | 0 mm | - | - | - |
| 1777979798 | 15° C | 66% | 1012.8 hPa | 0 mm | - | - | - |
| 1777977973 | 15.56° C | 70% | 1012.9 hPa | 0 mm | - | - | - |
| 1777966884 | 11.11° C | 91% | 1012.2 hPa | 0 mm | - | - | - |
| 1777966308 | 11.11° C | 91% | 1012.3 hPa | 0 mm | - | - | - |
| 1777965684 | 11.67° C | 92% | 1012.4 hPa | 0 mm | - | - | - |
| 1777965108 | 11.11° C | 92% | 1012.3 hPa | 0 mm | - | - | - |
| 1777957284 | 11.11° C | 91% | 1011.8 hPa | 0 mm | - | - | - |
| 1777954308 | 11.11° C | 91% | 1011.8 hPa | 0 mm | - | - | - |
| 1777953684 | 11.11° C | 91% | 1012 hPa | 0 mm | - | - | - |
| 1777951908 | 11.11° C | 90% | 1012.2 hPa | 0 mm | - | - | - |
| 1777951304 | 11.11° C | 90% | 1012.1 hPa | 0 mm | - | - | - |
| 1777947684 | 11.67° C | 88% | 1012.6 hPa | 0 mm | - | - | - |
| 1777944084 | 11.67° C | 86% | 1012.9 hPa | 0 mm | - | - | - |
| 1777942884 | 11.67° C | 85% | 1013 hPa | 0 mm | - | - | - |
| 1777939908 | 11.67° C | 81% | 1013.2 hPa | 0 mm | - | - | - |
| 1777933908 | 12.78° C | 72% | 1013.3 hPa | 0 mm | - | - | - |
| 1777926708 | 13.89° C | 67% | 1013.3 hPa | 0 mm | - | - | - |
| 1777921908 | 14.44° C | 64% | 1012.6 hPa | 0 mm | - | - | - |
| 1777918328 | 15° C | 64% | 1012.3 hPa | 0 mm | - | - | - |
| 1777916484 | 15.56° C | 62% | 1012.3 hPa | 0 mm | - | - | - |
| 1777915908 | 15.56° C | 61% | 1012.4 hPa | 0 mm | - | - | - |
| 1777914708 | 15.56° C | 58% | 1012.3 hPa | 0 mm | - | - | - |
| 1777914084 | 16.11° C | 59% | 1012.4 hPa | 0 mm | - | - | - |
* Rain latest hour (hover to see other rain measurements)
** Current wind speed in m/s (hover to see current wind gust speed)